sensor_id;sensor_type;location;lat;lon;timestamp;temperature;humidity
4429;DHT22;2227;47.810;8.810;2023-04-30T04:34:21;12.10;99.90
4429;DHT22;2227;47.810;8.810;2023-04-30T04:36:48;12.20;99.90
4429;DHT22;2227;47.810;8.810;2023-04-30T04:39:14;12.10;99.90
4429;DHT22;2227;47.810;8.810;2023-04-30T04:41:41;12.30;99.90
4429;DHT22;2227;47.810;8.810;2023-04-30T04:44:08;12.20;99.90
4429;DHT22;2227;47.810;8.810;2023-04-30T04:46:34;12.20;99.90
4429;DHT22;2227;47.810;8.810;2023-04-30T04:49:04;12.40;99.90
4429;DHT22;2227;47.810;8.810;2023-04-30T04:51:31;12.50;99.90
4429;DHT22;2227;47.810;8.810;2023-04-30T04:53:58;12.50;99.90
4429;DHT22;2227;47.810;8.810;2023-04-30T04:56:25;12.40;99.90
4429;DHT22;2227;47.810;8.810;2023-04-30T04:58:52;12.50;99.90
4429;DHT22;2227;47.810;8.810;2023-04-30T05:01:18;12.40;99.90
4429;DHT22;2227;47.810;8.810;2023-04-30T05:03:45;12.20;99.90
4429;DHT22;2227;47.810;8.810;2023-04-30T05:06:13;12.50;99.90
4429;DHT22;2227;47.810;8.810;2023-04-30T05:08:39;12.60;99.90
4429;DHT22;2227;47.810;8.810;2023-04-30T05:11:06;12.60;99.90
4429;DHT22;2227;47.810;8.810;2023-04-30T05:13:33;12.60;99.90
4429;DHT22;2227;47.810;8.810;2023-04-30T05:15:59;12.60;99.90
4429;DHT22;2227;47.810;8.810;2023-04-30T05:18:26;12.50;99.90
4429;DHT22;2227;47.810;8.810;2023-04-30T05:20:53;12.60;99.90
4429;DHT22;2227;47.810;8.810;2023-04-30T05:23:19;12.70;99.90
4429;DHT22;2227;47.810;8.810;2023-04-30T05:25:51;12.80;99.90
4429;DHT22;2227;47.810;8.810;2023-04-30T05:28:18;12.90;99.90
4429;DHT22;2227;47.810;8.810;2023-04-30T05:30:44;12.90;99.90
4429;DHT22;2227;47.810;8.810;2023-04-30T05:33:11;13.00;99.90
4429;DHT22;2227;47.810;8.810;2023-04-30T05:35:38;12.80;99.90
4429;DHT22;2227;47.810;8.810;2023-04-30T05:38:05;12.50;99.90
4429;DHT22;2227;47.810;8.810;2023-04-30T05:40:32;12.60;99.90
4429;DHT22;2227;47.810;8.810;2023-04-30T05:42:59;12.50;99.90
4429;DHT22;2227;47.810;8.810;2023-04-30T05:45:26;12.60;99.90
4429;DHT22;2227;47.810;8.810;2023-04-30T05:47:53;12.50;99.90
4429;DHT22;2227;47.810;8.810;2023-04-30T05:50:19;12.30;99.90
4429;DHT22;2227;47.810;8.810;2023-04-30T05:52:46;12.60;99.90
4429;DHT22;2227;47.810;8.810;2023-04-30T05:55:13;12.70;99.90
4429;DHT22;2227;47.810;8.810;2023-04-30T05:57:40;12.80;99.90
4429;DHT22;2227;47.810;8.810;2023-04-30T06:00:07;12.80;99.90
4429;DHT22;2227;47.810;8.810;2023-04-30T06:02:33;12.70;99.90
4429;DHT22;2227;47.810;8.810;2023-04-30T06:05:01;12.80;99.90
4429;DHT22;2227;47.810;8.810;2023-04-30T06:07:28;12.90;99.90
4429;DHT22;2227;47.810;8.810;2023-04-30T06:09:56;12.80;99.90
4429;DHT22;2227;47.810;8.810;2023-04-30T06:12:22;12.80;99.90
4429;DHT22;2227;47.810;8.810;2023-04-30T06:14:50;12.60;99.90
4429;DHT22;2227;47.810;8.810;2023-04-30T06:17:16;12.80;99.90
4429;DHT22;2227;47.810;8.810;2023-04-30T06:19:43;13.10;99.90
4429;DHT22;2227;47.810;8.810;2023-04-30T06:22:11;13.20;99.90
4429;DHT22;2227;47.810;8.810;2023-04-30T06:24:38;13.10;99.90
4429;DHT22;2227;47.810;8.810;2023-04-30T06:27:04;13.10;99.90
4429;DHT22;2227;47.810;8.810;2023-04-30T06:29:31;13.30;99.90
4429;DHT22;2227;47.810;8.810;2023-04-30T06:31:58;13.30;99.90
4429;DHT22;2227;47.810;8.810;2023-04-30T06:34:25;13.30;99.90
4429;DHT22;2227;47.810;8.810;2023-04-30T06:36:52;13.20;99.90
4429;DHT22;2227;47.810;8.810;2023-04-30T06:39:18;13.20;99.90
4429;DHT22;2227;47.810;8.810;2023-04-30T06:41:45;13.30;99.90
4429;DHT22;2227;47.810;8.810;2023-04-30T06:44:12;13.50;99.90
4429;DHT22;2227;47.810;8.810;2023-04-30T06:46:40;13.20;99.90
4429;DHT22;2227;47.810;8.810;2023-04-30T06:49:07;13.10;99.90
4429;DHT22;2227;47.810;8.810;2023-04-30T06:51:33;13.20;99.90
4429;DHT22;2227;47.810;8.810;2023-04-30T06:54:00;13.60;99.90
4429;DHT22;2227;47.810;8.810;2023-04-30T06:56:27;13.60;99.90
4429;DHT22;2227;47.810;8.810;2023-04-30T06:58:53;13.70;99.90
4429;DHT22;2227;47.810;8.810;2023-04-30T07:01:20;13.70;99.90
4429;DHT22;2227;47.810;8.810;2023-04-30T07:03:47;13.70;99.90
4429;DHT22;2227;47.810;8.810;2023-04-30T07:06:14;13.70;99.90
4429;DHT22;2227;47.810;8.810;2023-04-30T07:08:40;13.80;99.90
4429;DHT22;2227;47.810;8.810;2023-04-30T07:11:09;14.00;99.90
4429;DHT22;2227;47.810;8.810;2023-04-30T07:13:35;13.80;99.90
4429;DHT22;2227;47.810;8.810;2023-04-30T07:16:03;13.90;99.90
4429;DHT22;2227;47.810;8.810;2023-04-30T07:18:29;13.90;99.90
4429;DHT22;2227;47.810;8.810;2023-04-30T07:20:56;14.20;99.90
4429;DHT22;2227;47.810;8.810;2023-04-30T07:23:23;14.30;99.90
4429;DHT22;2227;47.810;8.810;2023-04-30T07:25:50;14.60;99.90
4429;DHT22;2227;47.810;8.810;2023-04-30T07:28:16;14.60;99.90
4429;DHT22;2227;47.810;8.810;2023-04-30T07:30:43;14.50;99.90
4429;DHT22;2227;47.810;8.810;2023-04-30T07:33:10;14.70;99.90
4429;DHT22;2227;47.810;8.810;2023-04-30T07:35:37;14.70;99.90
4429;DHT22;2227;47.810;8.810;2023-04-30T07:38:04;14.80;99.90
4429;DHT22;2227;47.810;8.810;2023-04-30T07:40:31;15.10;99.90
4429;DHT22;2227;47.810;8.810;2023-04-30T07:43:02;15.00;99.90
4429;DHT22;2227;47.810;8.810;2023-04-30T07:45:30;15.10;99.90
4429;DHT22;2227;47.810;8.810;2023-04-30T07:47:57;15.20;99.90
4429;DHT22;2227;47.810;8.810;2023-04-30T07:50:23;15.60;99.90
4429;DHT22;2227;47.810;8.810;2023-04-30T07:52:50;15.70;99.90
4429;DHT22;2227;47.810;8.810;2023-04-30T07:55:17;15.70;99.90
4429;DHT22;2227;47.810;8.810;2023-04-30T07:57:44;15.90;99.90
4429;DHT22;2227;47.810;8.810;2023-04-30T08:00:11;16.40;99.90
4429;DHT22;2227;47.810;8.810;2023-04-30T08:02:38;16.60;99.90
4429;DHT22;2227;47.810;8.810;2023-04-30T08:05:06;16.50;99.90
4429;DHT22;2227;47.810;8.810;2023-04-30T08:07:32;16.30;99.90
4429;DHT22;2227;47.810;8.810;2023-04-30T08:09:59;16.40;99.90
4429;DHT22;2227;47.810;8.810;2023-04-30T08:12:26;16.40;99.90
4429;DHT22;2227;47.810;8.810;2023-04-30T08:15:01;16.40;99.90
4429;DHT22;2227;47.810;8.810;2023-04-30T08:17:30;16.60;99.90
4429;DHT22;2227;47.810;8.810;2023-04-30T08:19:57;16.30;99.90
4429;DHT22;2227;47.810;8.810;2023-04-30T08:22:23;16.40;99.90
4429;DHT22;2227;47.810;8.810;2023-04-30T08:24:50;16.80;99.90
4429;DHT22;2227;47.810;8.810;2023-04-30T08:27:17;17.10;99.90
4429;DHT22;2227;47.810;8.810;2023-04-30T08:29:43;17.10;99.90
4429;DHT22;2227;47.810;8.810;2023-04-30T08:32:10;17.50;99.90
4429;DHT22;2227;47.810;8.810;2023-04-30T08:34:37;17.70;99.90
4429;DHT22;2227;47.810;8.810;2023-04-30T08:37:06;17.90;99.90
4429;DHT22;2227;47.810;8.810;2023-04-30T08:39:33;17.90;99.90
4429;DHT22;2227;47.810;8.810;2023-04-30T08:42:01;18.30;99.90
4429;DHT22;2227;47.810;8.810;2023-04-30T08:44:30;18.30;99.90
4429;DHT22;2227;47.810;8.810;2023-04-30T08:46:57;18.20;99.90
4429;DHT22;2227;47.810;8.810;2023-04-30T08:49:25;18.30;99.90
4429;DHT22;2227;47.810;8.810;2023-04-30T08:51:53;18.40;99.90
4429;DHT22;2227;47.810;8.810;2023-04-30T08:54:20;18.20;99.90
4429;DHT22;2227;47.810;8.810;2023-04-30T08:56:49;17.80;99.90
4429;DHT22;2227;47.810;8.810;2023-04-30T08:59:15;17.80;99.90
4429;DHT22;2227;47.810;8.810;2023-04-30T09:01:42;17.90;99.90
4429;DHT22;2227;47.810;8.810;2023-04-30T09:04:09;18.00;99.90
4429;DHT22;2227;47.810;8.810;2023-04-30T09:06:36;18.30;99.90
4429;DHT22;2227;47.810;8.810;2023-04-30T09:09:11;18.90;99.90
4429;DHT22;2227;47.810;8.810;2023-04-30T09:11:38;20.30;99.90
4429;DHT22;2227;47.810;8.810;2023-04-30T09:14:05;21.40;99.90
4429;DHT22;2227;47.810;8.810;2023-04-30T09:16:46;21.80;99.80
4429;DHT22;2227;47.810;8.810;2023-04-30T09:19:26;21.50;98.20
4429;DHT22;2227;47.810;8.810;2023-04-30T09:21:54;20.50;99.60
4429;DHT22;2227;47.810;8.810;2023-04-30T09:24:21;20.10;99.90
4429;DHT22;2227;47.810;8.810;2023-04-30T09:26:48;20.30;99.70
4429;DHT22;2227;47.810;8.810;2023-04-30T09:29:16;20.30;99.90
4429;DHT22;2227;47.810;8.810;2023-04-30T09:31:44;20.70;99.90
4429;DHT22;2227;47.810;8.810;2023-04-30T09:34:13;20.90;98.10
4429;DHT22;2227;47.810;8.810;2023-04-30T09:36:53;21.40;97.10
4429;DHT22;2227;47.810;8.810;2023-04-30T09:39:21;22.50;96.10
4429;DHT22;2227;47.810;8.810;2023-04-30T09:41:49;23.10;94.20
4429;DHT22;2227;47.810;8.810;2023-04-30T09:44:28;23.50;93.50
4429;DHT22;2227;47.810;8.810;2023-04-30T09:46:55;24.00;92.10
4429;DHT22;2227;47.810;8.810;2023-04-30T09:49:24;25.20;90.80
4429;DHT22;2227;47.810;8.810;2023-04-30T09:51:59;25.60;87.70
4429;DHT22;2227;47.810;8.810;2023-04-30T09:54:29;26.10;84.20
4429;DHT22;2227;47.810;8.810;2023-04-30T09:56:58;25.80;84.00
4429;DHT22;2227;47.810;8.810;2023-04-30T09:59:34;25.50;81.10
4429;DHT22;2227;47.810;8.810;2023-04-30T10:02:03;25.00;85.50
4429;DHT22;2227;47.810;8.810;2023-04-30T10:04:34;26.20;79.90
4429;DHT22;2227;47.810;8.810;2023-04-30T10:07:07;26.60;80.00
4429;DHT22;2227;47.810;8.810;2023-04-30T10:09:48;26.70;78.00
4429;DHT22;2227;47.810;8.810;2023-04-30T10:12:17;27.30;75.80
4429;DHT22;2227;47.810;8.810;2023-04-30T10:14:54;28.00;72.50
4429;DHT22;2227;47.810;8.810;2023-04-30T10:17:28;28.50;69.90
4429;DHT22;2227;47.810;8.810;2023-04-30T10:20:05;28.60;67.70
4429;DHT22;2227;47.810;8.810;2023-04-30T10:22:35;27.90;67.60
4429;DHT22;2227;47.810;8.810;2023-04-30T10:25:02;27.50;69.90
4429;DHT22;2227;47.810;8.810;2023-04-30T10:27:29;27.30;69.10
4429;DHT22;2227;47.810;8.810;2023-04-30T10:29:58;26.60;71.00
4429;DHT22;2227;47.810;8.810;2023-04-30T10:32:32;26.00;71.30
4429;DHT22;2227;47.810;8.810;2023-04-30T10:35:09;25.90;71.40
4429;DHT22;2227;47.810;8.810;2023-04-30T10:37:45;25.00;72.80
4429;DHT22;2227;47.810;8.810;2023-04-30T10:40:14;25.10;72.70
4429;DHT22;2227;47.810;8.810;2023-04-30T10:42:52;24.90;74.60
4429;DHT22;2227;47.810;8.810;2023-04-30T10:45:37;24.60;72.60
4429;DHT22;2227;47.810;8.810;2023-04-30T10:48:05;22.90;80.00
4429;DHT22;2227;47.810;8.810;2023-04-30T10:50:38;21.70;82.80
4429;DHT22;2227;47.810;8.810;2023-04-30T10:53:05;21.60;83.90
4429;DHT22;2227;47.810;8.810;2023-04-30T10:55:32;21.30;83.70
4429;DHT22;2227;47.810;8.810;2023-04-30T10:57:59;21.20;84.30
4429;DHT22;2227;47.810;8.810;2023-04-30T11:00:27;21.40;83.80
4429;DHT22;2227;47.810;8.810;2023-04-30T11:03:02;21.60;83.30
4429;DHT22;2227;47.810;8.810;2023-04-30T11:05:37;21.40;83.50
4429;DHT22;2227;47.810;8.810;2023-04-30T11:08:04;21.50;83.50
4429;DHT22;2227;47.810;8.810;2023-04-30T11:10:33;21.30;83.60
4429;DHT22;2227;47.810;8.810;2023-04-30T11:13:05;21.00;85.20
4429;DHT22;2227;47.810;8.810;2023-04-30T11:15:44;21.30;85.10
4429;DHT22;2227;47.810;8.810;2023-04-30T11:18:12;21.20;84.50
4429;DHT22;2227;47.810;8.810;2023-04-30T11:20:40;21.40;84.00
4429;DHT22;2227;47.810;8.810;2023-04-30T11:23:11;21.30;85.80
4429;DHT22;2227;47.810;8.810;2023-04-30T11:25:42;21.10;84.00
4429;DHT22;2227;47.810;8.810;2023-04-30T11:28:18;21.10;85.60
4429;DHT22;2227;47.810;8.810;2023-04-30T11:31:03;20.70;88.80
4429;DHT22;2227;47.810;8.810;2023-04-30T11:33:32;20.50;85.30
4429;DHT22;2227;47.810;8.810;2023-04-30T11:36:00;20.40;87.10
4429;DHT22;2227;47.810;8.810;2023-04-30T11:38:28;20.60;86.40
4429;DHT22;2227;47.810;8.810;2023-04-30T11:40:59;20.50;85.10
4429;DHT22;2227;47.810;8.810;2023-04-30T11:43:28;20.60;86.10
4429;DHT22;2227;47.810;8.810;2023-04-30T11:46:09;20.80;85.70
4429;DHT22;2227;47.810;8.810;2023-04-30T11:48:37;20.70;90.00
4429;DHT22;2227;47.810;8.810;2023-04-30T11:51:15;20.60;90.10
4429;DHT22;2227;47.810;8.810;2023-04-30T11:53:42;20.20;88.50
4429;DHT22;2227;47.810;8.810;2023-04-30T11:56:11;20.20;87.10
4429;DHT22;2227;47.810;8.810;2023-04-30T11:58:38;20.00;87.80
4429;DHT22;2227;47.810;8.810;2023-04-30T12:01:06;20.10;89.00
4429;DHT22;2227;47.810;8.810;2023-04-30T12:03:45;20.40;89.40
4429;DHT22;2227;47.810;8.810;2023-04-30T12:06:23;20.40;87.30
4429;DHT22;2227;47.810;8.810;2023-04-30T12:08:54;20.50;88.30
4429;DHT22;2227;47.810;8.810;2023-04-30T12:11:29;20.20;87.30
4429;DHT22;2227;47.810;8.810;2023-04-30T12:14:16;20.10;88.50
4429;DHT22;2227;47.810;8.810;2023-04-30T12:16:46;20.30;89.00
4429;DHT22;2227;47.810;8.810;2023-04-30T12:19:15;20.50;88.30
4429;DHT22;2227;47.810;8.810;2023-04-30T12:21:44;20.40;88.00
4429;DHT22;2227;47.810;8.810;2023-04-30T12:24:13;20.00;87.60
4429;DHT22;2227;47.810;8.810;2023-04-30T12:26:41;20.00;90.30
4429;DHT22;2227;47.810;8.810;2023-04-30T12:29:09;19.80;90.00
4429;DHT22;2227;47.810;8.810;2023-04-30T12:31:40;20.20;90.20
4429;DHT22;2227;47.810;8.810;2023-04-30T12:34:10;20.60;90.40
4429;DHT22;2227;47.810;8.810;2023-04-30T12:36:38;20.90;89.80
4429;DHT22;2227;47.810;8.810;2023-04-30T12:39:10;21.50;86.80
4429;DHT22;2227;47.810;8.810;2023-04-30T12:41:41;22.00;86.30
4429;DHT22;2227;47.810;8.810;2023-04-30T12:44:21;22.10;86.00
4429;DHT22;2227;47.810;8.810;2023-04-30T12:46:50;22.10;85.40
4429;DHT22;2227;47.810;8.810;2023-04-30T12:49:26;22.40;82.40
4429;DHT22;2227;47.810;8.810;2023-04-30T12:54:29;22.20;82.40
4429;DHT22;2227;47.810;8.810;2023-04-30T12:57:04;22.20;81.90
4429;DHT22;2227;47.810;8.810;2023-04-30T12:59:34;22.40;81.00
4429;DHT22;2227;47.810;8.810;2023-04-30T13:04:39;22.60;80.90
4429;DHT22;2227;47.810;8.810;2023-04-30T13:07:05;22.30;81.80
4429;DHT22;2227;47.810;8.810;2023-04-30T13:09:33;22.30;81.90
4429;DHT22;2227;47.810;8.810;2023-04-30T13:12:00;22.10;82.20
4429;DHT22;2227;47.810;8.810;2023-04-30T13:14:27;22.10;81.30
4429;DHT22;2227;47.810;8.810;2023-04-30T13:16:54;21.90;81.00
4429;DHT22;2227;47.810;8.810;2023-04-30T13:19:21;21.60;82.10
4429;DHT22;2227;47.810;8.810;2023-04-30T13:21:48;21.70;82.60
4429;DHT22;2227;47.810;8.810;2023-04-30T13:24:14;21.70;80.70
4429;DHT22;2227;47.810;8.810;2023-04-30T13:26:41;21.50;84.20
4429;DHT22;2227;47.810;8.810;2023-04-30T13:29:08;21.20;83.00
4429;DHT22;2227;47.810;8.810;2023-04-30T13:31:35;21.20;82.10
4429;DHT22;2227;47.810;8.810;2023-04-30T13:34:01;21.30;82.50
4429;DHT22;2227;47.810;8.810;2023-04-30T13:36:28;21.20;82.40
4429;DHT22;2227;47.810;8.810;2023-04-30T13:38:55;21.10;84.40
4429;DHT22;2227;47.810;8.810;2023-04-30T13:41:21;21.80;82.40
4429;DHT22;2227;47.810;8.810;2023-04-30T13:43:48;22.20;81.30
4429;DHT22;2227;47.810;8.810;2023-04-30T13:46:15;22.60;80.30
4429;DHT22;2227;47.810;8.810;2023-04-30T13:48:42;22.50;79.60
4429;DHT22;2227;47.810;8.810;2023-04-30T13:51:09;22.20;79.40
4429;DHT22;2227;47.810;8.810;2023-04-30T13:53:35;21.60;82.20
4429;DHT22;2227;47.810;8.810;2023-04-30T13:56:02;21.10;85.10
4429;DHT22;2227;47.810;8.810;2023-04-30T13:58:29;20.90;83.10
4429;DHT22;2227;47.810;8.810;2023-04-30T14:00:56;20.20;85.60
4429;DHT22;2227;47.810;8.810;2023-04-30T14:03:23;20.20;86.30
4429;DHT22;2227;47.810;8.810;2023-04-30T14:05:49;20.30;85.10
4429;DHT22;2227;47.810;8.810;2023-04-30T14:08:16;20.50;85.20
4429;DHT22;2227;47.810;8.810;2023-04-30T14:10:43;20.70;86.00
4429;DHT22;2227;47.810;8.810;2023-04-30T14:13:10;20.60;85.20
4429;DHT22;2227;47.810;8.810;2023-04-30T14:15:36;20.70;84.10
4429;DHT22;2227;47.810;8.810;2023-04-30T14:18:04;20.90;83.70
4429;DHT22;2227;47.810;8.810;2023-04-30T14:20:30;21.00;84.60
4429;DHT22;2227;47.810;8.810;2023-04-30T14:22:57;21.10;85.40
4429;DHT22;2227;47.810;8.810;2023-04-30T14:25:27;21.60;82.60
4429;DHT22;2227;47.810;8.810;2023-04-30T14:27:54;22.00;82.10
4429;DHT22;2227;47.810;8.810;2023-04-30T14:30:20;22.20;80.90
4429;DHT22;2227;47.810;8.810;2023-04-30T14:32:47;21.90;81.00
4429;DHT22;2227;47.810;8.810;2023-04-30T14:35:14;21.60;82.20
4429;DHT22;2227;47.810;8.810;2023-04-30T14:37:40;21.40;81.90
4429;DHT22;2227;47.810;8.810;2023-04-30T14:40:07;21.10;85.20
4429;DHT22;2227;47.810;8.810;2023-04-30T14:42:35;21.00;84.40
4429;DHT22;2227;47.810;8.810;2023-04-30T14:45:01;20.80;84.90
4429;DHT22;2227;47.810;8.810;2023-04-30T14:47:28;20.70;85.10
4429;DHT22;2227;47.810;8.810;2023-04-30T14:49:55;20.70;84.60
4429;DHT22;2227;47.810;8.810;2023-04-30T14:52:24;20.80;84.60
4429;DHT22;2227;47.810;8.810;2023-04-30T14:54:50;21.10;87.00
4429;DHT22;2227;47.810;8.810;2023-04-30T14:57:17;21.00;84.20
4429;DHT22;2227;47.810;8.810;2023-04-30T14:59:44;20.80;84.30
4429;DHT22;2227;47.810;8.810;2023-04-30T15:02:11;20.80;86.20
4429;DHT22;2227;47.810;8.810;2023-04-30T15:04:38;21.10;84.20
4429;DHT22;2227;47.810;8.810;2023-04-30T15:07:04;21.40;83.10
4429;DHT22;2227;47.810;8.810;2023-04-30T15:09:31;21.10;83.60
4429;DHT22;2227;47.810;8.810;2023-04-30T15:11:58;21.30;84.10
4429;DHT22;2227;47.810;8.810;2023-04-30T15:14:24;21.20;83.70
4429;DHT22;2227;47.810;8.810;2023-04-30T15:16:51;21.10;84.30
4429;DHT22;2227;47.810;8.810;2023-04-30T15:19:18;20.90;84.10
4429;DHT22;2227;47.810;8.810;2023-04-30T15:21:44;20.60;85.00
4429;DHT22;2227;47.810;8.810;2023-04-30T15:24:14;20.80;84.80
4429;DHT22;2227;47.810;8.810;2023-04-30T15:26:41;20.70;84.60
4429;DHT22;2227;47.810;8.810;2023-04-30T15:29:08;20.70;85.30
4429;DHT22;2227;47.810;8.810;2023-04-30T15:31:35;20.30;87.70
4429;DHT22;2227;47.810;8.810;2023-04-30T15:34:02;20.40;86.30
4429;DHT22;2227;47.810;8.810;2023-04-30T15:36:29;20.50;84.40
4429;DHT22;2227;47.810;8.810;2023-04-30T15:38:57;20.40;86.10
4429;DHT22;2227;47.810;8.810;2023-04-30T15:41:24;20.20;86.40
4429;DHT22;2227;47.810;8.810;2023-04-30T15:43:51;20.40;86.80
4429;DHT22;2227;47.810;8.810;2023-04-30T15:46:18;19.80;87.80
4429;DHT22;2227;47.810;8.810;2023-04-30T15:48:44;19.80;86.90
4429;DHT22;2227;47.810;8.810;2023-04-30T15:51:11;19.80;87.50
4429;DHT22;2227;47.810;8.810;2023-04-30T15:53:38;20.00;87.90
4429;DHT22;2227;47.810;8.810;2023-04-30T15:56:04;19.90;86.40
4429;DHT22;2227;47.810;8.810;2023-04-30T15:58:31;19.90;86.20
4429;DHT22;2227;47.810;8.810;2023-04-30T16:00:58;19.90;86.50
4429;DHT22;2227;47.810;8.810;2023-04-30T16:03:24;19.70;86.60
4429;DHT22;2227;47.810;8.810;2023-04-30T16:05:52;19.40;90.10
4429;DHT22;2227;47.810;8.810;2023-04-30T16:08:19;19.40;89.50
4429;DHT22;2227;47.810;8.810;2023-04-30T16:10:46;19.20;88.80
4429;DHT22;2227;47.810;8.810;2023-04-30T16:13:12;19.00;90.50
4429;DHT22;2227;47.810;8.810;2023-04-30T16:15:39;19.10;89.70
4429;DHT22;2227;47.810;8.810;2023-04-30T16:18:06;19.20;90.30
4429;DHT22;2227;47.810;8.810;2023-04-30T16:20:33;19.10;89.00
4429;DHT22;2227;47.810;8.810;2023-04-30T16:23:00;19.10;90.10
4429;DHT22;2227;47.810;8.810;2023-04-30T16:25:26;19.30;89.40
4429;DHT22;2227;47.810;8.810;2023-04-30T16:27:53;19.00;89.90
4429;DHT22;2227;47.810;8.810;2023-04-30T16:30:20;18.70;90.10
4429;DHT22;2227;47.810;8.810;2023-04-30T16:32:47;18.70;90.50
4429;DHT22;2227;47.810;8.810;2023-04-30T16:35:14;18.80;90.20
4429;DHT22;2227;47.810;8.810;2023-04-30T16:37:40;18.80;90.30
4429;DHT22;2227;47.810;8.810;2023-04-30T16:40:07;18.80;89.90
4429;DHT22;2227;47.810;8.810;2023-04-30T16:42:35;18.80;90.20
4429;DHT22;2227;47.810;8.810;2023-04-30T16:45:01;18.80;90.20
4429;DHT22;2227;47.810;8.810;2023-04-30T16:47:28;18.80;90.30
4429;DHT22;2227;47.810;8.810;2023-04-30T16:49:55;18.90;90.50
4429;DHT22;2227;47.810;8.810;2023-04-30T16:52:24;18.90;90.00
4429;DHT22;2227;47.810;8.810;2023-04-30T16:54:50;18.90;90.30
4429;DHT22;2227;47.810;8.810;2023-04-30T16:57:17;18.90;90.20
4429;DHT22;2227;47.810;8.810;2023-04-30T16:59:44;18.80;90.30
4429;DHT22;2227;47.810;8.810;2023-04-30T17:02:12;18.70;90.10
4429;DHT22;2227;47.810;8.810;2023-04-30T17:04:38;18.40;90.60
4429;DHT22;2227;47.810;8.810;2023-04-30T17:07:05;18.40;90.60
4429;DHT22;2227;47.810;8.810;2023-04-30T17:09:32;18.10;91.20
4429;DHT22;2227;47.810;8.810;2023-04-30T17:11:59;18.00;90.90
4429;DHT22;2227;47.810;8.810;2023-04-30T17:14:28;18.10;91.10
4429;DHT22;2227;47.810;8.810;2023-04-30T17:16:55;17.60;91.80
4429;DHT22;2227;47.810;8.810;2023-04-30T17:19:22;17.50;92.30
4429;DHT22;2227;47.810;8.810;2023-04-30T17:21:49;17.40;92.70
4429;DHT22;2227;47.810;8.810;2023-04-30T17:24:16;17.70;91.70
4429;DHT22;2227;47.810;8.810;2023-04-30T17:26:43;17.90;91.50
4429;DHT22;2227;47.810;8.810;2023-04-30T17:29:09;17.90;92.00
4429;DHT22;2227;47.810;8.810;2023-04-30T17:31:36;18.10;91.60
4429;DHT22;2227;47.810;8.810;2023-04-30T17:34:03;17.80;91.80
4429;DHT22;2227;47.810;8.810;2023-04-30T17:36:29;17.70;91.70
4429;DHT22;2227;47.810;8.810;2023-04-30T17:38:56;17.60;92.90
4429;DHT22;2227;47.810;8.810;2023-04-30T17:41:23;17.80;92.00
4429;DHT22;2227;47.810;8.810;2023-04-30T17:43:49;17.80;92.40
4429;DHT22;2227;47.810;8.810;2023-04-30T17:46:17;17.70;92.70
4429;DHT22;2227;47.810;8.810;2023-04-30T17:48:44;17.50;92.60
4429;DHT22;2227;47.810;8.810;2023-04-30T17:51:10;17.70;92.60
4429;DHT22;2227;47.810;8.810;2023-04-30T17:53:37;17.80;92.50
4429;DHT22;2227;47.810;8.810;2023-04-30T17:56:04;17.90;92.10
4429;DHT22;2227;47.810;8.810;2023-04-30T17:58:31;17.90;92.30
4429;DHT22;2227;47.810;8.810;2023-04-30T18:00:58;18.00;92.10
4429;DHT22;2227;47.810;8.810;2023-04-30T18:03:27;18.00;92.00
4429;DHT22;2227;47.810;8.810;2023-04-30T18:05:54;18.00;92.10
4429;DHT22;2227;47.810;8.810;2023-04-30T18:08:20;18.00;92.20
4429;DHT22;2227;47.810;8.810;2023-04-30T18:10:48;18.00;92.20
4429;DHT22;2227;47.810;8.810;2023-04-30T18:13:14;18.10;92.00
4429;DHT22;2227;47.810;8.810;2023-04-30T18:15:41;18.10;91.80
4429;DHT22;2227;47.810;8.810;2023-04-30T18:18:08;18.10;91.90
4429;DHT22;2227;47.810;8.810;2023-04-30T18:20:35;18.00;91.90
4429;DHT22;2227;47.810;8.810;2023-04-30T18:23:02;18.00;92.10
4429;DHT22;2227;47.810;8.810;2023-04-30T18:25:32;17.90;92.00
4429;DHT22;2227;47.810;8.810;2023-04-30T18:27:59;18.00;92.20
4429;DHT22;2227;47.810;8.810;2023-04-30T18:30:26;18.00;92.80
4429;DHT22;2227;47.810;8.810;2023-04-30T18:32:53;18.00;92.50
4429;DHT22;2227;47.810;8.810;2023-04-30T18:35:20;17.90;92.50
4429;DHT22;2227;47.810;8.810;2023-04-30T18:37:48;17.80;92.40
4429;DHT22;2227;47.810;8.810;2023-04-30T18:40:14;17.70;92.30
4429;DHT22;2227;47.810;8.810;2023-04-30T18:42:41;17.70;92.60
4429;DHT22;2227;47.810;8.810;2023-04-30T18:45:08;17.70;92.80
4429;DHT22;2227;47.810;8.810;2023-04-30T18:47:37;17.70;93.00
4429;DHT22;2227;47.810;8.810;2023-04-30T18:50:04;17.50;92.70
4429;DHT22;2227;47.810;8.810;2023-04-30T18:52:32;17.40;93.20
4429;DHT22;2227;47.810;8.810;2023-04-30T18:54:59;17.40;93.00
4429;DHT22;2227;47.810;8.810;2023-04-30T18:57:25;17.40;92.90
4429;DHT22;2227;47.810;8.810;2023-04-30T18:59:53;17.50;93.10
4429;DHT22;2227;47.810;8.810;2023-04-30T19:02:20;17.40;93.00
4429;DHT22;2227;47.810;8.810;2023-04-30T19:04:47;17.30;93.30
4429;DHT22;2227;47.810;8.810;2023-04-30T19:07:15;17.10;93.10
4429;DHT22;2227;47.810;8.810;2023-04-30T19:09:42;17.10;93.30
4429;DHT22;2227;47.810;8.810;2023-04-30T19:12:10;17.10;93.10
4429;DHT22;2227;47.810;8.810;2023-04-30T19:14:37;17.20;93.10
4429;DHT22;2227;47.810;8.810;2023-04-30T19:17:04;16.90;94.00
4429;DHT22;2227;47.810;8.810;2023-04-30T19:19:31;17.00;93.90
4429;DHT22;2227;47.810;8.810;2023-04-30T19:21:58;17.10;93.60
4429;DHT22;2227;47.810;8.810;2023-04-30T19:24:24;16.90;93.90
4429;DHT22;2227;47.810;8.810;2023-04-30T19:26:51;16.90;94.00
4429;DHT22;2227;47.810;8.810;2023-04-30T19:29:18;17.00;94.10
4429;DHT22;2227;47.810;8.810;2023-04-30T19:31:44;17.00;93.80
4429;DHT22;2227;47.810;8.810;2023-04-30T19:34:11;16.80;93.60
4429;DHT22;2227;47.810;8.810;2023-04-30T19:36:39;16.80;93.50
4429;DHT22;2227;47.810;8.810;2023-04-30T19:39:07;16.60;93.80
4429;DHT22;2227;47.810;8.810;2023-04-30T19:41:37;16.60;94.20
4429;DHT22;2227;47.810;8.810;2023-04-30T19:44:04;16.70;94.00
4429;DHT22;2227;47.810;8.810;2023-04-30T19:46:31;16.70;93.80
4429;DHT22;2227;47.810;8.810;2023-04-30T19:48:58;16.70;93.90
4429;DHT22;2227;47.810;8.810;2023-04-30T19:51:24;16.80;93.40
4429;DHT22;2227;47.810;8.810;2023-04-30T19:53:51;16.80;93.40
4429;DHT22;2227;47.810;8.810;2023-04-30T19:56:18;16.80;93.90
4429;DHT22;2227;47.810;8.810;2023-04-30T19:58:45;16.90;93.50
4429;DHT22;2227;47.810;8.810;2023-04-30T20:01:13;16.70;93.60
4429;DHT22;2227;47.810;8.810;2023-04-30T20:03:41;16.60;93.90
4429;DHT22;2227;47.810;8.810;2023-04-30T20:06:08;16.70;93.70
4429;DHT22;2227;47.810;8.810;2023-04-30T20:08:35;16.70;93.70
4429;DHT22;2227;47.810;8.810;2023-04-30T20:11:02;16.70;93.70
4429;DHT22;2227;47.810;8.810;2023-04-30T20:13:29;16.70;93.80
4429;DHT22;2227;47.810;8.810;2023-04-30T20:15:56;16.40;93.70
4429;DHT22;2227;47.810;8.810;2023-04-30T20:18:23;16.50;93.80
4429;DHT22;2227;47.810;8.810;2023-04-30T20:20:49;16.60;93.80
4429;DHT22;2227;47.810;8.810;2023-04-30T20:23:17;16.50;94.10
4429;DHT22;2227;47.810;8.810;2023-04-30T20:25:45;16.60;93.90
4429;DHT22;2227;47.810;8.810;2023-04-30T20:28:13;16.70;93.60
4429;DHT22;2227;47.810;8.810;2023-04-30T20:30:41;16.70;93.50
4429;DHT22;2227;47.810;8.810;2023-04-30T20:33:09;16.50;93.90
4429;DHT22;2227;47.810;8.810;2023-04-30T20:35:38;16.50;93.70
4429;DHT22;2227;47.810;8.810;2023-04-30T20:38:06;16.50;93.90
4429;DHT22;2227;47.810;8.810;2023-04-30T20:40:33;16.50;93.70
4429;DHT22;2227;47.810;8.810;2023-04-30T20:43:00;16.50;94.00
4429;DHT22;2227;47.810;8.810;2023-04-30T20:45:27;16.40;93.90